Time;durP1;ratioP1;P1;durP2;ratioP2;P2;SDS_P1;SDS_P2;PMS_P1;PMS_P2;Temp;Humidity;BMP_temperature;BMP_pressure;BME280_temperature;BME280_humidity;BME280_pressure;Samples;Min_cycle;Max_cycle;Signal;HPM_P1;HPM_P2
2023/08/31 00:00:41;;;;;;;0.00;0.00;;;;;;;11.30;88.91;99820.44;4998880;28;20372;-72
2023/08/31 00:03:07;;;;;;;0.00;0.00;;;;;;;11.37;89.32;99819.28;4992195;28;20437;-76
2023/08/31 00:05:36;;;;;;;0.00;0.00;;;;;;;11.31;88.91;99822.03;4995151;28;20030;-73
2023/08/31 00:08:01;;;;;;;0.00;0.00;;;;;;;11.35;89.62;99823.09;5009973;28;20428;-74
2023/08/31 00:10:27;;;;;;;0.00;0.00;;;;;;;11.26;89.08;99794.72;5003147;28;20034;-76
2023/08/31 00:12:52;;;;;;;0.00;0.00;;;;;;;11.38;88.86;99809.97;4989582;28;20033;-77
2023/08/31 00:15:20;;;;;;;0.00;0.00;;;;;;;11.43;88.98;99801.69;5006238;28;20068;-75
2023/08/31 00:17:49;;;;;;;0.00;0.00;;;;;;;11.59;89.96;99816.88;5005836;28;20109;-75
2023/08/31 00:20:14;;;;;;;0.00;0.00;;;;;;;11.53;89.46;99801.59;4999646;28;20052;-75
2023/08/31 00:22:40;;;;;;;0.00;0.00;;;;;;;11.63;89.16;99807.00;4994293;28;20030;-75
2023/08/31 00:25:08;;;;;;;0.03;0.03;;;;;;;11.54;89.61;99786.81;4984714;28;20088;-77
2023/08/31 00:27:36;;;;;;;0.00;0.00;;;;;;;11.66;89.03;99789.97;4997295;28;20069;-75
2023/08/31 00:30:06;;;;;;;0.00;0.00;;;;;;;11.66;89.14;99795.47;4975856;28;20030;-75
2023/08/31 00:32:33;;;;;;;0.00;0.00;;;;;;;11.74;88.74;99805.00;4993000;28;20062;-75
2023/08/31 00:35:03;;;;;;;0.00;0.00;;;;;;;11.65;88.46;99782.88;4987104;28;20771;-75
2023/08/31 00:37:31;;;;;;;0.00;0.00;;;;;;;11.73;88.73;99777.91;5003095;28;20092;-74
2023/08/31 00:39:56;;;;;;;0.00;0.00;;;;;;;11.90;88.60;99797.44;4997628;28;20109;-75
2023/08/31 00:42:29;;;;;;;0.00;0.00;;;;;;;11.80;88.52;99772.88;5011627;28;20034;-77
2023/08/31 00:44:54;;;;;;;0.00;0.00;;;;;;;11.97;88.23;99795.19;4994308;28;20790;-73
2023/08/31 00:47:20;;;;;;;0.00;0.00;;;;;;;12.04;88.13;99795.66;5011299;28;20053;-75
2023/08/31 00:49:46;;;;;;;0.00;0.00;;;;;;;12.02;88.00;99792.38;4999013;28;20484;-76
2023/08/31 00:52:12;;;;;;;0.00;0.00;;;;;;;12.15;87.19;99807.31;4988671;28;20146;-75
2023/08/31 00:54:37;;;;;;;0.00;0.00;;;;;;;12.05;87.03;99794.53;5009190;28;20043;-75
2023/08/31 00:57:03;;;;;;;0.00;0.00;;;;;;;12.15;86.90;99801.00;4995955;28;20477;-75
2023/08/31 00:59:29;;;;;;;0.00;0.00;;;;;;;12.08;86.62;99792.34;4980933;28;21642;-75
2023/08/31 01:02:07;;;;;;;0.00;0.00;;;;;;;12.14;86.63;99800.19;4998084;28;20050;-75
2023/08/31 01:04:33;;;;;;;0.00;0.00;;;;;;;12.11;86.39;99794.50;5012358;28;20117;-76
2023/08/31 01:07:20;;;;;;;0.00;0.00;;;;;;;12.01;86.91;99793.50;5002583;28;20034;-76
2023/08/31 01:10:17;;;;;;;0.00;0.00;;;;;;;12.01;86.76;99784.47;5004441;28;20037;-76
2023/08/31 01:13:03;;;;;;;0.00;0.00;;;;;;;11.96;86.91;99785.34;4998094;28;20079;-75
2023/08/31 01:15:33;;;;;;;0.00;0.00;;;;;;;11.98;86.85;99796.81;5005641;28;20037;-76
2023/08/31 01:18:00;;;;;;;0.00;0.00;;;;;;;11.92;87.24;99788.94;4998809;28;20022;-74
2023/08/31 01:20:44;;;;;;;0.00;0.00;;;;;;;11.95;87.23;99788.38;4996413;28;20057;-74
2023/08/31 01:23:15;;;;;;;0.00;0.00;;;;;;;11.99;86.74;99790.22;4987557;28;20022;-76
2023/08/31 01:25:42;;;;;;;0.00;0.00;;;;;;;11.92;86.85;99780.72;4992751;28;20075;-74
2023/08/31 01:28:09;;;;;;;0.00;0.00;;;;;;;11.91;86.81;99785.34;4985655;28;20033;-76
2023/08/31 01:30:35;;;;;;;0.00;0.00;;;;;;;11.85;86.86;99789.25;4987366;28;20018;-75
2023/08/31 01:33:02;;;;;;;0.00;0.00;;;;;;;11.82;87.13;99793.38;4996985;28;20419;-74
2023/08/31 01:35:31;;;;;;;0.00;0.00;;;;;;;11.71;87.45;99789.13;4999464;28;20045;-77
2023/08/31 01:38:01;;;;;;;0.00;0.00;;;;;;;11.54;87.74;99781.34;4988154;28;20036;-75
2023/08/31 01:40:40;;;;;;;0.00;0.00;;;;;;;11.37;87.82;99783.69;5011862;28;20065;-76
2023/08/31 01:43:06;;;;;;;0.00;0.00;;;;;;;11.28;88.34;99794.44;4991669;28;20029;-75
2023/08/31 01:45:35;;;;;;;0.00;0.00;;;;;;;11.16;88.93;99786.59;4988098;28;20042;-74
2023/08/31 01:48:01;;;;;;;0.00;0.00;;;;;;;11.02;88.63;99763.72;4989499;28;20022;-75
2023/08/31 01:50:27;;;;;;;0.00;0.00;;;;;;;11.12;89.44;99780.06;4994138;28;20535;-74
2023/08/31 01:52:55;;;;;;;0.00;0.00;;;;;;;11.12;88.89;99780.88;4995260;28;20026;-74
2023/08/31 01:55:22;;;;;;;0.00;0.00;;;;;;;11.07;89.64;99771.88;4987091;28;20440;-75
2023/08/31 01:57:47;;;;;;;0.00;0.00;;;;;;;11.03;89.50;99762.63;4986212;28;20050;-75
2023/08/31 02:00:14;;;;;;;0.00;0.00;;;;;;;11.03;89.19;99765.38;5010648;28;20084;-74
2023/08/31 02:02:42;;;;;;;0.00;0.00;;;;;;;10.94;89.09;99757.75;5015746;28;20062;-75
2023/08/31 02:05:08;;;;;;;0.00;0.00;;;;;;;11.08;89.59;99768.03;4992021;28;20041;-75
2023/08/31 02:07:33;;;;;;;0.00;0.00;;;;;;;11.14;90.06;99778.69;4986970;28;20034;-76
2023/08/31 02:10:06;;;;;;;0.00;0.00;;;;;;;11.11;89.26;99764.72;4993100;28;20988;-77
2023/08/31 02:12:38;;;;;;;0.00;0.00;;;;;;;11.14;89.30;99761.41;4997038;28;20033;-76
2023/08/31 02:15:05;;;;;;;0.00;0.00;;;;;;;11.16;89.38;99756.50;4981296;28;20048;-77
2023/08/31 02:17:30;;;;;;;0.00;0.00;;;;;;;11.14;89.02;99742.25;4994383;28;20038;-76
2023/08/31 02:19:57;;;;;;;0.00;0.00;;;;;;;11.25;89.15;99756.69;4991903;28;20037;-75
2023/08/31 02:22:26;;;;;;;0.00;0.00;;;;;;;11.29;89.23;99775.00;5000180;28;20101;-76
2023/08/31 02:24:53;;;;;;;0.00;0.00;;;;;;;11.03;89.58;99722.41;5002047;28;20153;-75
2023/08/31 02:27:19;;;;;;;0.00;0.00;;;;;;;11.28;89.18;99762.41;4980610;28;20030;-75
2023/08/31 02:29:44;;;;;;;0.00;0.00;;;;;;;11.35;89.09;99768.38;4988997;28;20044;-74
2023/08/31 02:32:10;;;;;;;0.00;0.00;;;;;;;11.32;89.82;99762.66;4991988;28;20048;-76
2023/08/31 02:34:35;;;;;;;0.00;0.00;;;;;;;11.35;89.44;99764.81;4994745;28;20025;-75
2023/08/31 02:37:01;;;;;;;0.00;0.00;;;;;;;11.28;89.24;99750.66;4993145;28;20112;-74
2023/08/31 02:39:26;;;;;;;0.00;0.00;;;;;;;11.34;89.42;99755.78;4991631;28;20041;-76
2023/08/31 02:41:51;;;;;;;0.00;0.00;;;;;;;11.33;89.43;99747.84;4978812;28;20100;-76
2023/08/31 02:44:17;;;;;;;0.00;0.00;;;;;;;11.29;89.36;99744.88;4997429;28;20033;-78
2023/08/31 02:46:45;;;;;;;0.00;0.00;;;;;;;11.26;89.48;99742.72;5007932;28;20038;-77
2023/08/31 02:49:10;;;;;;;0.00;0.00;;;;;;;11.30;89.44;99757.47;4998388;28;20077;-76
2023/08/31 02:51:36;;;;;;;0.00;0.00;;;;;;;11.18;89.63;99737.84;4999695;28;20026;-77
2023/08/31 02:54:03;;;;;;;0.00;0.00;;;;;;;11.28;89.72;99751.44;5012784;28;20037;-76
2023/08/31 02:56:31;;;;;;;0.00;0.00;;;;;;;11.27;89.61;99741.63;4994956;28;20488;-76
2023/08/31 02:58:58;;;;;;;0.00;0.00;;;;;;;11.21;89.83;99723.59;4998347;28;20707;-76
2023/08/31 03:01:24;;;;;;;0.00;0.00;;;;;;;11.25;89.35;99732.88;4995355;28;20047;-77
2023/08/31 03:03:50;;;;;;;0.00;0.00;;;;;;;11.33;89.73;99751.44;4996810;28;20052;-77
2023/08/31 03:06:15;;;;;;;0.00;0.00;;;;;;;11.27;89.40;99738.91;5007809;28;20033;-76
2023/08/31 03:08:42;;;;;;;0.00;0.00;;;;;;;11.28;90.02;99745.19;5016280;28;20036;-74
2023/08/31 03:11:08;;;;;;;0.00;0.00;;;;;;;11.28;89.70;99743.25;5015181;28;20033;-74
2023/08/31 03:13:34;;;;;;;0.00;0.00;;;;;;;11.23;90.36;99743.31;4998955;28;20038;-75
2023/08/31 03:16:00;;;;;;;0.00;0.00;;;;;;;11.16;90.22;99726.41;4997329;28;20112;-76
2023/08/31 03:18:26;;;;;;;0.00;0.00;;;;;;;11.24;89.98;99738.63;4985593;28;20021;-74
2023/08/31 03:20:51;;;;;;;0.00;0.00;;;;;;;11.13;90.42;99721.50;4999590;28;20099;-75
2023/08/31 03:23:17;;;;;;;0.00;0.00;;;;;;;11.12;90.39;99717.13;5012497;28;20376;-74
2023/08/31 03:25:42;;;;;;;0.00;0.00;;;;;;;11.09;89.89;99717.69;4998514;28;20033;-75
2023/08/31 03:28:09;;;;;;;0.00;0.00;;;;;;;11.23;90.62;99737.84;5001537;28;20030;-75
2023/08/31 03:30:35;;;;;;;0.00;0.00;;;;;;;11.14;90.28;99723.94;4998978;28;20030;-75
2023/08/31 03:33:01;;;;;;;0.00;0.00;;;;;;;11.11;90.75;99716.31;4987064;28;20476;-75
2023/08/31 03:35:27;;;;;;;0.00;0.00;;;;;;;11.08;89.82;99707.84;4998369;28;20077;-75
2023/08/31 03:37:53;;;;;;;0.00;0.00;;;;;;;11.10;90.14;99713.88;5001256;28;20256;-75
2023/08/31 03:40:19;;;;;;;0.00;0.00;;;;;;;11.05;90.17;99714.69;4983197;28;20034;-75
2023/08/31 03:42:52;;;;;;;0.00;0.00;;;;;;;11.17;90.23;99738.97;4979244;28;20033;-75
2023/08/31 03:45:27;;;;;;;0.00;0.00;;;;;;;11.18;90.75;99741.44;4996164;28;20048;-75
2023/08/31 03:47:52;;;;;;;0.00;0.00;;;;;;;11.06;90.53;99712.81;5005762;28;20060;-75
2023/08/31 03:50:20;;;;;;;0.00;0.00;;;;;;;11.16;90.21;99729.13;4997573;28;20462;-75
2023/08/31 03:52:49;;;;;;;0.00;0.00;;;;;;;11.14;90.41;99720.38;5015913;28;20085;-73
2023/08/31 03:55:17;;;;;;;0.00;0.00;;;;;;;11.24;90.62;99733.97;4988917;28;20024;-74
2023/08/31 03:57:43;;;;;;;0.00;0.00;;;;;;;11.17;90.19;99723.38;5008120;28;20046;-73
2023/08/31 04:00:11;;;;;;;0.00;0.00;;;;;;;11.21;90.37;99729.06;4996470;28;20018;-73
2023/08/31 04:02:38;;;;;;;0.00;0.00;;;;;;;11.16;90.33;99723.66;4992889;28;20090;-74
2023/08/31 04:05:05;;;;;;;0.00;0.00;;;;;;;11.16;90.56;99720.91;4996589;28;20603;-73
2023/08/31 04:07:32;;;;;;;0.00;0.00;;;;;;;11.25;90.71;99730.13;5001107;28;20033;-73
2023/08/31 04:09:57;;;;;;;0.00;0.00;;;;;;;11.33;90.49;99742.38;5000421;28;20537;-74
2023/08/31 04:12:23;;;;;;;0.00;0.00;;;;;;;11.27;89.94;99736.16;4997967;28;20041;-74
2023/08/31 04:14:50;;;;;;;0.00;0.00;;;;;;;11.29;90.20;99731.19;4985017;28;20022;-75
2023/08/31 04:17:16;;;;;;;0.00;0.00;;;;;;;11.41;90.18;99743.69;5003606;28;20034;-75
2023/08/31 04:19:41;;;;;;;0.00;0.00;;;;;;;11.29;90.34;99717.50;4984205;28;20038;-75
2023/08/31 04:22:07;;;;;;;0.00;0.00;;;;;;;11.42;89.85;99731.63;5010622;28;20396;-74
2023/08/31 04:24:33;;;;;;;0.00;0.00;;;;;;;11.48;89.44;99738.69;5004040;28;20072;-76
2023/08/31 04:26:58;;;;;;;0.00;0.00;;;;;;;11.49;89.54;99726.63;4995823;28;20057;-74
2023/08/31 04:29:24;;;;;;;0.00;0.00;;;;;;;11.57;89.24;99734.22;4998188;28;20026;-72
2023/08/31 04:31:50;;;;;;;0.00;0.00;;;;;;;11.63;89.34;99752.22;4992623;28;20079;-73
2023/08/31 04:34:17;;;;;;;0.00;0.00;;;;;;;11.65;89.63;99752.78;5004962;28;20033;-75
2023/08/31 04:36:43;;;;;;;0.00;0.00;;;;;;;11.70;88.92;99747.22;5005056;28;20033;-74
2023/08/31 04:39:13;;;;;;;0.00;0.00;;;;;;;11.66;88.83;99743.41;4993776;28;20042;-76
2023/08/31 04:41:39;;;;;;;0.00;0.00;;;;;;;11.77;89.02;99767.97;4996643;28;20563;-74
2023/08/31 04:44:04;;;;;;;0.00;0.00;;;;;;;11.70;88.34;99746.41;4991266;28;20045;-75
2023/08/31 04:46:30;;;;;;;0.00;0.00;;;;;;;11.69;88.95;99753.78;5002952;28;20046;-75
2023/08/31 04:48:56;;;;;;;0.00;0.00;;;;;;;11.75;88.63;99761.97;4988619;28;20460;-74
2023/08/31 04:51:41;;;;;;;0.00;0.00;;;;;;;11.66;88.87;99751.63;4971073;28;20150;-75
2023/08/31 04:54:07;;;;;;;0.00;0.00;;;;;;;11.68;88.92;99751.34;4998901;28;20122;-75
2023/08/31 04:56:33;;;;;;;0.00;0.00;;;;;;;11.68;88.47;99752.19;4996883;28;20022;-75
2023/08/31 04:58:59;;;;;;;0.00;0.00;;;;;;;11.63;88.78;99741.28;5015865;28;20052;-76
2023/08/31 05:01:25;;;;;;;0.00;0.00;;;;;;;11.67;88.88;99745.06;5002001;28;20470;-75
2023/08/31 05:03:53;;;;;;;0.00;0.00;;;;;;;11.64;88.93;99740.16;5005346;28;20117;-74
2023/08/31 05:06:20;;;;;;;0.00;0.00;;;;;;;11.83;88.91;99756.69;4980772;28;20829;-75
2023/08/31 05:08:46;;;;;;;0.00;0.00;;;;;;;11.70;88.32;99738.19;4998298;28;20041;-75
2023/08/31 05:11:14;;;;;;;0.00;0.00;;;;;;;11.90;88.19;99761.81;5001642;28;20042;-75
2023/08/31 05:13:42;;;;;;;0.00;0.00;;;;;;;11.93;88.19;99761.25;4999335;28;20113;-75
2023/08/31 05:16:08;;;;;;;0.00;0.00;;;;;;;11.86;88.25;99745.13;4984020;28;20157;-75
2023/08/31 05:18:35;;;;;;;0.00;0.00;;;;;;;11.89;88.01;99743.75;4983073;28;20473;-75
2023/08/31 05:21:01;;;;;;;0.00;0.00;;;;;;;11.97;88.10;99745.88;4992468;28;20502;-75
2023/08/31 05:23:26;;;;;;;0.00;0.00;;;;;;;12.03;88.64;99763.06;4983418;28;20053;-74
2023/08/31 05:25:52;;;;;;;0.00;0.00;;;;;;;11.94;87.85;99737.41;5005218;28;20034;-74
2023/08/31 05:28:17;;;;;;;0.00;0.00;;;;;;;11.92;88.44;99737.69;4986284;28;20045;-74
2023/08/31 05:30:54;;;;;;;0.00;0.00;;;;;;;12.01;88.29;99746.91;4981503;28;20034;-73
2023/08/31 05:33:22;;;;;;;0.00;0.00;;;;;;;12.01;88.19;99752.38;4998447;28;20038;-74
2023/08/31 05:35:55;;;;;;;0.00;0.00;;;;;;;11.95;87.86;99753.56;5001961;28;20522;-74
2023/08/31 05:38:20;;;;;;;0.00;0.00;;;;;;;11.94;88.16;99734.69;4995999;28;20040;-74
2023/08/31 05:40:46;;;;;;;0.00;0.00;;;;;;;12.03;88.34;99743.88;5004308;28;20030;-76
2023/08/31 05:43:17;;;;;;;0.00;0.00;;;;;;;11.92;88.79;99715.75;5004034;28;20054;-74
2023/08/31 05:45:42;;;;;;;0.00;0.00;;;;;;;12.08;88.61;99732.88;5001970;28;20030;-75
2023/08/31 05:48:08;;;;;;;0.00;0.00;;;;;;;12.06;88.25;99721.34;5003050;28;20085;-75
2023/08/31 05:50:34;;;;;;;0.00;0.00;;;;;;;12.17;88.36;99738.50;5000652;28;20068;-75
2023/08/31 05:52:59;;;;;;;0.00;0.00;;;;;;;12.16;88.38;99731.38;5013423;28;20029;-75
2023/08/31 05:55:40;;;;;;;0.00;0.00;;;;;;;12.13;88.50;99721.00;4991256;28;20416;-76
2023/08/31 05:58:08;;;;;;;0.00;0.00;;;;;;;12.15;88.53;99725.09;4989589;28;20467;-76
2023/08/31 06:00:52;;;;;;;0.00;0.00;;;;;;;12.13;88.18;99715.53;5006188;28;20044;-75
2023/08/31 06:03:17;;;;;;;0.00;0.00;;;;;;;12.31;88.64;99750.41;4740010;28;7077601;-74
2023/08/31 06:05:46;;;;;;;0.00;0.00;;;;;;;12.35;88.77;99739.63;5004824;28;20057;-76
2023/08/31 06:08:11;;;;;;;0.00;0.00;;;;;;;12.30;88.03;99735.03;4991283;28;20030;-76
2023/08/31 06:10:39;;;;;;;0.00;0.00;;;;;;;12.35;88.31;99728.66;5002405;28;20037;-74
2023/08/31 06:13:04;;;;;;;0.00;0.00;;;;;;;12.39;88.36;99729.72;5018781;28;20074;-74
2023/08/31 06:15:32;;;;;;;0.00;0.00;;;;;;;12.46;88.06;99732.09;5007336;28;20034;-75
2023/08/31 06:18:00;;;;;;;0.00;0.00;;;;;;;12.51;87.82;99734.75;5010530;28;20038;-76
2023/08/31 06:20:25;;;;;;;0.00;0.00;;;;;;;12.54;87.81;99725.94;4980248;28;20041;-75
2023/08/31 06:23:21;;;;;;;0.00;0.00;;;;;;;12.63;87.62;99723.34;4999069;28;20026;-77
2023/08/31 06:25:46;;;;;;;0.00;0.00;;;;;;;12.53;87.87;99696.91;4995069;28;20030;-76
2023/08/31 06:28:12;;;;;;;0.00;0.00;;;;;;;12.64;87.07;99725.78;4996616;28;20022;-75
2023/08/31 06:30:38;;;;;;;0.00;0.00;;;;;;;12.65;86.99;99721.94;4994742;28;20026;-75
2023/08/31 06:33:04;;;;;;;0.00;0.00;;;;;;;12.70;87.55;99723.78;4995887;28;20412;-76
2023/08/31 06:35:29;;;;;;;0.00;0.00;;;;;;;12.83;87.57;99738.69;4991514;28;20113;-75
2023/08/31 06:37:55;;;;;;;0.00;0.00;;;;;;;12.81;87.47;99729.97;4987075;28;20026;-77
2023/08/31 06:40:21;;;;;;;0.00;0.00;;;;;;;12.88;87.36;99727.66;4984924;28;20125;-76
2023/08/31 06:42:47;;;;;;;0.00;0.00;;;;;;;12.95;87.31;99741.78;4995580;28;20113;-77
2023/08/31 06:45:20;;;;;;;0.00;0.00;;;;;;;13.07;87.13;99749.59;4988862;28;20029;-76
2023/08/31 06:47:45;;;;;;;0.00;0.00;;;;;;;13.00;87.27;99741.72;4995562;28;20030;-76
2023/08/31 06:50:11;;;;;;;0.00;0.00;;;;;;;13.05;87.12;99741.66;5002543;28;20388;-75
2023/08/31 06:52:43;;;;;;;0.00;0.00;;;;;;;13.03;87.43;99738.38;5009884;28;20031;-76
2023/08/31 06:55:12;;;;;;;0.00;0.00;;;;;;;13.15;86.70;99746.13;4997501;28;20041;-77
2023/08/31 06:57:38;;;;;;;0.00;0.00;;;;;;;13.28;86.93;99758.28;5000183;28;20029;-76
2023/08/31 07:00:04;;;;;;;0.00;0.00;;;;;;;13.28;86.54;99747.31;5013753;28;20025;-76
2023/08/31 07:02:31;;;;;;;0.00;0.00;;;;;;;13.31;86.22;99737.66;4999998;28;20081;-76
2023/08/31 07:04:56;;;;;;;0.00;0.00;;;;;;;13.43;86.64;99751.75;4998611;28;20073;-77
2023/08/31 07:07:22;;;;;;;0.00;0.00;;;;;;;13.39;86.59;99743.31;4989544;28;20477;-76
2023/08/31 07:09:51;;;;;;;0.00;0.00;;;;;;;13.41;86.08;99738.31;4995625;28;20030;-78
2023/08/31 07:12:16;;;;;;;0.00;0.00;;;;;;;13.43;86.25;99730.59;4993785;28;20053;-75
2023/08/31 07:14:45;;;;;;;0.00;0.00;;;;;;;13.56;86.13;99744.66;4999196;28;20033;-75
2023/08/31 07:17:10;;;;;;;0.00;0.00;;;;;;;13.72;86.18;99748.75;4996437;28;20049;-76
2023/08/31 07:19:37;;;;;;;0.00;0.00;;;;;;;13.68;85.71;99736.75;4990290;28;20371;-76
2023/08/31 07:22:04;;;;;;;0.00;0.00;;;;;;;13.88;85.44;99751.19;5005919;28;20692;-76
2023/08/31 07:24:30;;;;;;;0.00;0.00;;;;;;;14.00;84.86;99759.75;4987504;28;20037;-78
2023/08/31 07:26:55;;;;;;;0.00;0.00;;;;;;;14.07;84.91;99754.66;4979591;28;20080;-77
2023/08/31 07:29:21;;;;;;;0.00;0.00;;;;;;;14.09;84.96;99752.44;4983121;28;20030;-75
2023/08/31 07:31:49;;;;;;;0.00;0.00;;;;;;;14.10;84.50;99756.78;4999485;28;20033;-76
2023/08/31 07:34:14;;;;;;;0.00;0.00;;;;;;;14.09;84.77;99763.44;4988964;28;20041;-77
2023/08/31 07:36:40;;;;;;;0.00;0.00;;;;;;;14.06;84.60;99746.72;5002386;28;20026;-76
2023/08/31 07:39:05;;;;;;;0.00;0.00;;;;;;;14.09;84.81;99751.59;4998424;28;20110;-77
2023/08/31 07:41:31;;;;;;;0.00;0.00;;;;;;;14.12;84.90;99757.31;4987434;28;20037;-75
2023/08/31 07:44:07;;;;;;;;;;;;;;;;;;;;;
2023/08/31 07:46:33;;;;;;;0.00;0.00;;;;;;;14.22;84.26;99756.31;5017178;28;20040;-74
2023/08/31 07:49:04;;;;;;;0.00;0.00;;;;;;;14.31;84.13;99764.66;4977782;28;20491;-73
2023/08/31 07:51:52;;;;;;;0.00;0.00;;;;;;;14.28;84.16;99749.56;4999486;28;20801;-75
2023/08/31 07:54:31;;;;;;;0.00;0.00;;;;;;;14.33;83.75;99743.13;4997280;28;20121;-74
2023/08/31 07:56:56;;;;;;;0.00;0.00;;;;;;;14.49;83.61;99741.69;4972809;28;20033;-74
2023/08/31 07:59:22;;;;;;;0.00;0.00;;;;;;;14.76;83.13;99745.53;4997151;28;20042;-76
2023/08/31 08:02:20;;;;;;;;;;;;;;;;;;;;;
2023/08/31 08:05:11;;;;;;;0.00;0.00;;;;;;;15.07;81.43;99747.56;4993938;28;20022;-74
2023/08/31 08:07:40;;;;;;;0.00;0.00;;;;;;;14.81;81.79;99734.38;4983973;28;20401;-73
2023/08/31 08:10:09;;;;;;;0.00;0.00;;;;;;;14.74;82.42;99750.50;5016000;28;20026;-74
2023/08/31 08:12:39;;;;;;;0.00;0.00;;;;;;;14.61;82.78;99748.59;4989088;28;20114;-74
2023/08/31 08:15:07;;;;;;;0.00;0.00;;;;;;;14.52;82.74;99758.72;4987693;28;20115;-74
2023/08/31 08:17:32;;;;;;;0.00;0.00;;;;;;;14.38;82.80;99764.22;4980593;28;20022;-75
2023/08/31 08:20:05;;;;;;;0.00;0.00;;;;;;;14.09;83.53;99746.94;5010077;28;20030;-77
2023/08/31 08:22:31;;;;;;;0.00;0.00;;;;;;;13.94;84.07;99755.47;5011518;28;20682;-75
2023/08/31 08:24:56;;;;;;;0.00;0.00;;;;;;;13.70;84.66;99748.25;5001825;28;20342;-75
2023/08/31 08:27:22;;;;;;;0.00;0.00;;;;;;;13.59;84.97;99760.53;4960977;28;20205;-74
2023/08/31 08:29:47;;;;;;;0.00;0.00;;;;;;;13.47;85.90;99757.47;5003898;28;20072;-74
2023/08/31 08:32:13;;;;;;;0.00;0.00;;;;;;;13.36;86.39;99752.16;4995119;28;20666;-73
2023/08/31 08:34:38;;;;;;;0.00;0.00;;;;;;;13.30;86.20;99747.81;4999988;28;20132;-74
2023/08/31 08:37:04;;;;;;;0.00;0.00;;;;;;;13.32;86.78;99750.28;4983858;28;20439;-73
2023/08/31 08:39:30;;;;;;;0.00;0.00;;;;;;;13.28;86.58;99750.03;4996701;28;20030;-74
2023/08/31 08:41:58;;;;;;;0.00;0.00;;;;;;;13.17;87.08;99748.56;5011963;28;20037;-74
2023/08/31 08:44:36;;;;;;;0.00;0.00;;;;;;;13.05;87.51;99749.88;4986982;28;20053;-73
2023/08/31 08:47:02;;;;;;;0.00;0.00;;;;;;;13.14;87.73;99749.19;5001612;28;20023;-75
2023/08/31 08:49:30;;;;;;;0.00;0.00;;;;;;;13.23;87.49;99747.41;4990768;28;20809;-74
2023/08/31 08:51:56;;;;;;;0.00;0.00;;;;;;;13.18;87.52;99742.78;4988880;28;20030;-74
2023/08/31 08:54:34;;;;;;;0.00;0.00;;;;;;;13.26;87.88;99757.78;4982063;28;20034;-76
2023/08/31 08:57:00;;;;;;;0.00;0.00;;;;;;;13.13;88.07;99740.16;5000173;28;20054;-76
2023/08/31 08:59:27;;;;;;;0.00;0.00;;;;;;;13.13;87.71;99728.31;5009704;28;20717;-75
2023/08/31 09:01:53;;;;;;;0.00;0.00;;;;;;;13.27;88.10;99742.91;5004763;28;20050;-74
2023/08/31 09:04:19;;;;;;;0.00;0.00;;;;;;;13.39;87.75;99756.19;4991015;28;20134;-76
2023/08/31 09:06:45;;;;;;;0.00;0.00;;;;;;;13.54;87.98;99744.16;5000528;28;20388;-75
2023/08/31 09:09:11;;;;;;;0.00;0.00;;;;;;;13.81;87.74;99739.78;5002075;28;20031;-74
2023/08/31 09:11:39;;;;;;;0.00;0.00;;;;;;;14.27;86.25;99741.63;4977501;28;20364;-75
2023/08/31 09:14:19;;;;;;;0.00;0.00;;;;;;;14.62;85.31;99737.31;4984942;28;20026;-77
2023/08/31 09:16:51;;;;;;;0.00;0.00;;;;;;;14.95;83.78;99745.38;4992226;28;20065;-75
2023/08/31 09:19:19;;;;;;;0.00;0.00;;;;;;;15.04;83.21;99744.59;4994108;28;20026;-73
2023/08/31 09:21:46;;;;;;;0.00;0.00;;;;;;;15.02;83.26;99733.91;4987780;28;20030;-74
2023/08/31 09:24:13;;;;;;;0.00;0.00;;;;;;;15.08;83.78;99731.84;5013382;28;20018;-73
2023/08/31 09:26:42;;;;;;;0.00;0.00;;;;;;;15.23;83.29;99733.38;4989356;28;20032;-75
2023/08/31 09:29:07;;;;;;;0.00;0.00;;;;;;;15.37;82.50;99723.09;4999553;28;20025;-75
2023/08/31 09:31:35;;;;;;;0.00;0.00;;;;;;;15.55;82.37;99724.03;4985376;28;20391;-74
2023/08/31 09:34:01;;;;;;;0.00;0.00;;;;;;;15.76;81.27;99718.78;4972716;28;20092;-76
2023/08/31 09:36:28;;;;;;;0.00;0.00;;;;;;;16.05;80.60;99718.25;4990526;28;20120;-73
2023/08/31 09:38:58;;;;;;;0.00;0.00;;;;;;;16.15;79.57;99730.94;4987877;28;20060;-78
2023/08/31 09:41:23;;;;;;;0.00;0.00;;;;;;;16.10;79.24;99717.28;4982655;28;20134;-79
2023/08/31 09:43:49;;;;;;;0.00;0.00;;;;;;;16.10;79.20;99720.03;4998606;28;20026;-80
2023/08/31 09:46:15;;;;;;;0.00;0.00;;;;;;;16.27;79.21;99715.72;4994562;28;20084;-79
2023/08/31 09:48:42;;;;;;;0.00;0.00;;;;;;;16.41;78.64;99716.38;5013111;28;20143;-80
2023/08/31 09:51:10;;;;;;;0.00;0.00;;;;;;;16.60;77.94;99715.25;4987061;28;20061;-79
2023/08/31 09:53:37;;;;;;;0.00;0.00;;;;;;;17.00;77.13;99710.41;4991405;28;20026;-78
2023/08/31 09:56:05;;;;;;;0.00;0.00;;;;;;;17.43;75.73;99700.41;4999843;28;20018;-78
2023/08/31 09:58:31;;;;;;;0.00;0.00;;;;;;;17.66;74.42;99708.47;4991923;28;20030;-79
2023/08/31 10:00:57;;;;;;;0.00;0.00;;;;;;;17.62;74.23;99697.25;4997700;28;20023;-79
2023/08/31 10:03:23;;;;;;;0.00;0.00;;;;;;;17.69;73.74;99702.28;4970126;28;20050;-77
2023/08/31 10:05:52;;;;;;;0.00;0.00;;;;;;;17.70;72.99;99692.84;4974262;28;20539;-81
2023/08/31 10:08:20;;;;;;;0.00;0.00;;;;;;;17.81;72.65;99696.84;5007329;28;20030;-77
2023/08/31 10:10:46;;;;;;;0.00;0.00;;;;;;;17.77;71.94;99676.53;4989916;28;20080;-79
2023/08/31 10:13:13;;;;;;;0.00;0.00;;;;;;;17.95;72.04;99688.38;5021397;28;20511;-78
2023/08/31 10:15:39;;;;;;;0.00;0.00;;;;;;;17.90;71.68;99681.06;4997126;28;20029;-79
2023/08/31 10:18:06;;;;;;;0.00;0.00;;;;;;;17.71;72.09;99684.22;5001135;28;20026;-77
2023/08/31 10:20:33;;;;;;;0.00;0.00;;;;;;;17.70;72.22;99688.13;4997102;28;20033;-79
2023/08/31 10:23:03;;;;;;;0.00;0.00;;;;;;;17.51;72.62;99676.63;4984063;28;20030;-81
2023/08/31 10:25:53;;;;;;;0.00;0.00;;;;;;;17.33;73.31;99676.69;5003344;28;20087;-78
2023/08/31 10:28:23;;;;;;;0.00;0.00;;;;;;;17.19;72.69;99678.88;5015240;28;20038;-80
2023/08/31 10:31:17;;;;;;;0.00;0.00;;;;;;;16.97;72.94;99677.94;5000694;28;20046;-82
2023/08/31 10:33:54;;;;;;;0.00;0.00;;;;;;;16.96;73.69;99665.25;4998671;28;20037;-79
2023/08/31 10:36:29;;;;;;;0.00;0.00;;;;;;;17.11;73.38;99655.63;4986160;28;20033;-78
2023/08/31 10:38:58;;;;;;;0.00;0.00;;;;;;;17.73;73.00;99675.59;4989086;28;20415;-80
2023/08/31 10:41:24;;;;;;;0.00;0.00;;;;;;;18.19;71.74;99673.09;5008331;28;20113;-79
2023/08/31 10:43:57;;;;;;;0.00;0.00;;;;;;;18.48;70.69;99655.63;4991059;28;20026;-78
2023/08/31 10:46:33;;;;;;;0.00;0.00;;;;;;;18.78;70.17;99663.84;4996253;28;20087;-78
2023/08/31 10:49:03;;;;;;;0.00;0.00;;;;;;;18.44;69.62;99662.97;5001378;28;20034;-78
2023/08/31 10:51:32;;;;;;;0.00;0.00;;;;;;;17.86;70.95;99643.31;5014569;28;20715;-79
2023/08/31 10:54:14;;;;;;;0.00;0.00;;;;;;;17.70;72.32;99659.69;5000356;28;20029;-79
2023/08/31 10:56:54;;;;;;;0.00;0.00;;;;;;;17.83;72.52;99646.72;4995818;28;20030;-80
2023/08/31 10:59:20;;;;;;;0.00;0.00;;;;;;;18.15;73.06;99653.59;4992256;28;20022;-78
2023/08/31 11:02:02;;;;;;;0.00;0.00;;;;;;;18.33;72.96;99647.94;4996757;28;20072;-79
2023/08/31 11:04:29;;;;;;;0.00;0.00;;;;;;;18.10;72.67;99645.47;5003683;28;21326;-78
2023/08/31 11:07:17;;;;;;;0.00;0.00;;;;;;;17.49;75.34;99649.34;5008532;28;20026;-79
2023/08/31 11:09:45;;;;;;;0.00;0.00;;;;;;;16.86;76.42;99647.03;5019301;28;20041;-78
2023/08/31 11:12:11;;;;;;;0.00;0.00;;;;;;;16.29;78.35;99641.72;5007286;28;20034;-78
2023/08/31 11:14:37;;;;;;;0.00;0.00;;;;;;;15.99;80.18;99638.75;5004699;28;20111;-78
2023/08/31 11:17:05;;;;;;;0.00;0.00;;;;;;;15.84;81.23;99638.09;5005390;28;20036;-79
2023/08/31 11:19:31;;;;;;;0.00;0.00;;;;;;;15.62;82.76;99630.66;4990350;28;20038;-79
2023/08/31 11:21:57;;;;;;;0.00;0.00;;;;;;;15.54;83.34;99648.00;4982889;28;20841;-79
2023/08/31 11:24:22;;;;;;;0.00;0.00;;;;;;;15.62;83.86;99651.91;4979273;28;20083;-78
2023/08/31 11:26:50;;;;;;;0.00;0.00;;;;;;;15.45;84.60;99647.97;5001657;28;20047;-80
2023/08/31 11:29:16;;;;;;;0.00;0.00;;;;;;;15.43;85.31;99652.97;4989363;28;20044;-77
2023/08/31 11:31:41;;;;;;;0.00;0.00;;;;;;;15.48;85.27;99646.53;4987486;28;20463;-79
2023/08/31 11:34:17;;;;;;;0.00;0.00;;;;;;;15.28;85.80;99642.38;5006980;28;20034;-79
2023/08/31 11:36:44;;;;;;;0.00;0.00;;;;;;;15.16;86.19;99641.03;5001252;28;20864;-78
2023/08/31 11:39:13;;;;;;;0.00;0.00;;;;;;;15.20;86.87;99641.22;5000716;28;20030;-83
2023/08/31 11:41:43;;;;;;;0.00;0.00;;;;;;;15.16;86.58;99630.00;4980901;28;20022;-81